KKLS/KLS METAR and TAF weather

Enter ICAO airport designator
Station Type Date Time Source
KKLS METAR 2021/05/14 22:56 UTC NOAA

KKLS 142256Z AUTO 29012G17KT 10SM CLR 22/13 A3005 RMK AO2 SLP180 T02220128


Station Type Date Time Source
KKLS Decoded METAR 2021/05/14 22:56 UTC NOAA

Kelso, Kelso-Longview Airport, WA, United States (KKLS) 46-07N 122-54W
May 14, 2021 - 06:56 PM EDT / 2021.05.14 2256 UTC
Wind: from the WNW (290 degrees) at 14 MPH (12 KT) gusting to 20 MPH (17 KT):0
Visibility: 10 mile(s):0
Sky conditions: clear
Temperature: 72.0 F (22.2 C)
Dew Point: 55.0 F (12.8 C)
Relative Humidity: 55%
Pressure (altimeter): 30.05 in. Hg (1017 hPa)
ob: KKLS 142256Z AUTO 29012G17KT 10SM CLR 22/13 A3005 RMK AO2 SLP180 T02220128
cycle: 23

Station Type Date Time Source
KKLS TAF UTC NOAA

Error!

Example: see airport list